03:16
Airports
History
Links
Donate
Help keep this website running!
PayPal
Bitcoin
This page is community maintained. The information is intended for PC simulator navigation or reference.
Always use approved charts for navigation.
WN18
Beckers Landing
Beckers Landing (WN18)
Anacortes, Washington, United States (98221)
4
Lat/Lng:48° 27' 24.38" N / 122° 32' 21.6" W
48.456771 / -122.539334
Elevation:155'ft / 47mMSL
ID / ICAO:WN18
Runways:1
Longest:17-35
Grass 515m / 1,690ft
Nearby Weather02:56 GMT 2017-09-21
Nearby weather at KNUW, Whidbey Island Nas /ault Field located 9.0 nautical miles from WN18
Altimeter: 29.83
Visibility: 10.0 statute miles
Wind: 0 knots (from 000°)
Temp: 11°c / 52°f
Humidity: 71.2%

METAR: KNUW 210256Z 00000KT 10SM FEW065 SCT100 BKN210 BKN250 11/06 A2983 RMK AO2 SLP099 T01060061 53014 $

(Powered by phpweather)
Nearby VORs <50NM
Nearby NDBs
Runway 17 / 35
Dimensions:515 x 22.9m 1690' x 75'ft
Surface:Grass
Runway 17 [A]Runway 35 [B]
Heading:190°TH 010°TH
Lat:
Lng:
48° 27' 32.61"N
122° 32' 19.19"W
48° 27' 16.14"N
122° 32' 24.02"W
User Notes and Comments
48° 27' 24.38" N / 122° 32' 21.6" W
Distance To
Airport ID:
Nearby Airports
(U) Skagit Rgnl 5.5 NM
KBVS E 79°
(R) Bayview Farms 5.6 NM
WN51 NE 37°
(U) Anacortes 6.3 NM
74S WNW 297°
(R) Whidbey Island Nas /ault Field 9.0 NM
KNUW ( WX ) SW 216°
4 Barker 10.8 NM
0S4 ESE 121°
(R) Decatur /jones/ 12.6 NM
WA18 WNW 286°
(R) Decatur Shores 12.9 NM
WN07 WNW 283°
VFR Chart
Flight Planning at SkyVector.com